Time;durP1;ratioP1;P1;durP2;ratioP2;P2;SDS_P1;SDS_P2;PMS_P1;PMS_P2;Temp;Humidity;BMP_temperature;BMP_pressure;BME280_temperature;BME280_humidity;BME280_pressure;Samples;Min_cycle;Max_cycle;Signal;HPM_P1;HPM_P2
2022/11/10 00:01:32;;;;;;;2.80;2.47;;;5.10;99.90;;;;;;5118214;28;20264;-89
2022/11/10 00:04:03;;;;;;;3.50;2.60;;;5.00;99.90;;;;;;5114239;28;20209;-91
2022/11/10 00:06:34;;;;;;;4.93;2.33;;;5.00;99.90;;;;;;5093232;28;20226;-89
2022/11/10 00:09:06;;;;;;;4.13;2.70;;;5.00;99.90;;;;;;5097231;28;20297;-90
2022/11/10 00:11:37;;;;;;;3.73;2.70;;;4.90;99.90;;;;;;5116497;28;20291;-90
2022/11/10 00:17:03;;;;;;;5.03;2.37;;;4.80;99.90;;;;;;5114273;28;20608;-88
2022/11/10 00:19:35;;;;;;;3.90;2.70;;;4.80;99.90;;;;;;5117777;28;20284;-90
2022/11/10 00:22:07;;;;;;;5.10;2.40;;;4.80;99.90;;;;;;5116937;28;20302;-90
2022/11/10 00:24:39;;;;;;;4.73;2.30;;;4.70;99.90;;;;;;5114179;28;20293;-90
2022/11/10 00:27:10;;;;;;;2.63;2.10;;;4.70;99.90;;;;;;5114366;28;20722;-89
2022/11/10 00:29:44;;;;;;;4.53;2.33;;;4.70;99.90;;;;;;5114665;28;20236;-89
2022/11/10 00:32:15;;;;;;;4.43;2.23;;;4.60;99.90;;;;;;5117100;28;20237;-88
2022/11/10 00:34:47;;;;;;;3.47;2.13;;;4.60;99.90;;;;;;5097462;28;20301;-88
2022/11/10 00:37:18;;;;;;;4.33;2.53;;;4.60;99.90;;;;;;5115182;28;20237;-88
2022/11/10 00:39:50;;;;;;;4.63;2.47;;;4.60;99.90;;;;;;5114321;28;20261;-90
2022/11/10 00:42:21;;;;;;;4.73;2.70;;;4.60;99.90;;;;;;5114435;28;20372;-89
2022/11/10 00:44:54;;;;;;;3.63;2.50;;;4.60;99.90;;;;;;5114555;28;20281;-87
2022/11/10 00:47:25;;;;;;;7.10;2.97;;;4.60;99.90;;;;;;5114813;28;20651;-88
2022/11/10 00:49:56;;;;;;;4.10;2.80;;;4.60;99.90;;;;;;5113141;28;20213;-87
2022/11/10 00:52:27;;;;;;;4.87;2.80;;;4.60;99.90;;;;;;5113478;28;20206;-87
2022/11/10 00:54:59;;;;;;;5.50;2.60;;;4.60;99.90;;;;;;5114541;28;20198;-88
2022/11/10 00:57:30;;;;;;;4.27;3.23;;;4.60;99.90;;;;;;5114284;28;20289;-87
2022/11/10 01:00:03;;;;;;;4.63;2.83;;;4.60;99.90;;;;;;5114233;28;20486;-86
2022/11/10 01:02:34;;;;;;;3.93;3.53;;;4.60;99.90;;;;;;5114203;28;20248;-87
2022/11/10 01:05:05;;;;;;;6.20;4.03;;;4.50;99.90;;;;;;5113495;28;20631;-88
2022/11/10 01:07:35;;;;;;;4.70;4.20;;;4.50;99.90;;;;;;5114109;28;20680;-87
2022/11/10 01:10:07;;;;;;;6.33;3.53;;;4.50;99.90;;;;;;5114166;28;20213;-88
2022/11/10 01:12:38;;;;;;;3.60;2.70;;;4.40;99.90;;;;;;5113489;28;20202;-86
2022/11/10 01:15:11;;;;;;;6.00;2.37;;;4.30;99.90;;;;;;5114425;28;20255;-86
2022/11/10 01:17:43;;;;;;;4.87;2.30;;;4.20;99.90;;;;;;5116011;28;20234;-87
2022/11/10 01:20:13;;;;;;;3.53;2.20;;;4.10;99.90;;;;;;5116172;28;20294;-86
2022/11/10 01:22:44;;;;;;;3.93;2.63;;;4.00;99.90;;;;;;5113472;28;20274;-88
2022/11/10 01:25:16;;;;;;;4.20;2.43;;;4.00;99.90;;;;;;5114656;28;20200;-87
2022/11/10 01:27:46;;;;;;;5.43;3.00;;;3.90;99.90;;;;;;5114351;28;20206;-88
2022/11/10 01:30:19;;;;;;;5.43;2.77;;;3.90;99.90;;;;;;5103868;28;20580;-87
2022/11/10 01:32:50;;;;;;;3.60;2.83;;;3.90;99.90;;;;;;5091585;28;20261;-87
2022/11/10 01:35:21;;;;;;;6.40;3.23;;;3.90;99.90;;;;;;5092954;28;20618;-86
2022/11/10 01:37:53;;;;;;;6.20;2.77;;;3.90;99.90;;;;;;5093440;28;20203;-87
2022/11/10 01:40:24;;;;;;;6.60;2.83;;;4.00;99.90;;;;;;5108513;28;20205;-87
2022/11/10 01:42:58;;;;;;;7.47;3.13;;;4.10;99.90;;;;;;5112369;28;20240;-87
2022/11/10 01:45:46;;;;;;;4.33;2.77;;;4.10;99.90;;;;;;5113335;28;20241;-86
2022/11/10 01:48:22;;;;;;;4.50;2.60;;;4.20;99.90;;;;;;5096962;28;20285;-87
2022/11/10 01:50:54;;;;;;;4.03;2.63;;;4.20;99.90;;;;;;5121005;28;20316;-87
2022/11/10 01:53:29;;;;;;;4.93;3.00;;;4.20;99.90;;;;;;5113063;28;20225;-86
2022/11/10 01:56:00;;;;;;;4.30;2.70;;;4.10;99.90;;;;;;5114581;28;20228;-86
2022/11/10 01:58:38;;;;;;;7.47;3.00;;;4.20;99.90;;;;;;5113162;28;20294;-87
2022/11/10 02:01:11;;;;;;;3.67;2.87;;;4.20;99.90;;;;;;5111879;28;20601;-85
2022/11/10 02:03:46;;;;;;;4.23;2.83;;;4.10;99.90;;;;;;5105837;28;20206;-90
2022/11/10 02:06:20;;;;;;;4.60;3.27;;;4.00;99.90;;;;;;5114852;28;20234;-91
2022/11/10 02:08:52;;;;;;;3.80;2.77;;;3.90;99.90;;;;;;5113393;28;20251;-88
2022/11/10 02:11:25;;;;;;;5.60;3.40;;;3.80;99.90;;;;;;5113031;28;20233;-87
2022/11/10 02:13:56;;;;;;;7.33;4.30;;;3.80;99.90;;;;;;5113071;28;20216;-87
2022/11/10 02:16:29;;;;;;;6.77;4.90;;;3.60;99.90;;;;;;5113518;28;20265;-87
2022/11/10 02:19:11;;;;;;;5.93;4.83;;;3.50;99.90;;;;;;5103068;28;20285;-88
2022/11/10 02:21:44;;;;;;;7.87;4.53;;;3.40;99.90;;;;;;5106902;28;20202;-87
2022/11/10 02:24:16;;;;;;;6.43;3.87;;;3.30;99.90;;;;;;5109273;28;20285;-89
2022/11/10 02:26:51;;;;;;;5.63;4.00;;;3.30;99.90;;;;;;5113766;28;20246;-89
2022/11/10 02:29:24;;;;;;;7.13;4.03;;;3.20;99.90;;;;;;5080069;28;20662;-89
2022/11/10 02:31:55;;;;;;;11.17;4.60;;;3.10;99.90;;;;;;5112880;28;20293;-89
2022/11/10 02:34:29;;;;;;;5.73;4.43;;;3.00;99.90;;;;;;5112644;28;20206;-91
2022/11/10 02:37:03;;;;;;;7.93;4.90;;;2.90;99.90;;;;;;5112510;28;20208;-90
2022/11/10 02:39:34;;;;;;;8.17;6.27;;;2.90;99.90;;;;;;5115230;28;20241;-91
2022/11/10 02:42:09;;;;;;;15.37;8.50;;;2.80;99.90;;;;;;5095042;28;20203;-90
2022/11/10 02:44:41;;;;;;;21.63;10.50;;;2.80;99.90;;;;;;5113540;28;20281;-90
2022/11/10 02:47:13;;;;;;;25.73;18.17;;;2.70;99.90;;;;;;5102113;28;20240;-90
2022/11/10 02:49:45;;;;;;;45.57;29.53;;;2.60;99.90;;;;;;5113567;28;20237;-90
2022/11/10 02:52:18;;;;;;;35.47;22.03;;;2.50;99.90;;;;;;5114202;28;20599;-89
2022/11/10 02:54:50;;;;;;;28.90;21.17;;;2.50;99.90;;;;;;5113984;28;20879;-90
2022/11/10 02:57:21;;;;;;;19.80;14.93;;;2.50;99.90;;;;;;5093236;28;20238;-89
2022/11/10 02:59:53;;;;;;;13.57;9.90;;;2.50;99.90;;;;;;5100804;28;20237;-90
2022/11/10 03:02:24;;;;;;;13.70;8.97;;;2.40;99.90;;;;;;5098009;28;20283;-91
2022/11/10 03:05:01;;;;;;;12.27;7.17;;;2.40;99.90;;;;;;5095699;28;20788;-90
2022/11/10 03:07:34;;;;;;;9.60;7.33;;;2.30;99.90;;;;;;5112850;28;20346;-90
2022/11/10 03:10:06;;;;;;;8.70;6.87;;;2.30;99.90;;;;;;5113407;28;20302;-89
2022/11/10 03:12:37;;;;;;;9.93;7.60;;;2.20;99.90;;;;;;5115657;28;20297;-90
2022/11/10 03:15:09;;;;;;;10.43;7.40;;;2.20;99.90;;;;;;5117018;28;20233;-90
2022/11/10 03:17:41;;;;;;;10.77;7.83;;;2.20;99.90;;;;;;5106935;28;20190;-91
2022/11/10 03:20:13;;;;;;;9.10;6.63;;;2.10;99.90;;;;;;5116884;28;20389;-90
2022/11/10 03:22:46;;;;;;;12.10;6.90;;;2.00;99.90;;;;;;5114526;28;20199;-91
2022/11/10 03:25:17;;;;;;;9.40;6.03;;;2.00;99.90;;;;;;5111613;28;20282;-91
2022/11/10 03:27:49;;;;;;;6.10;5.10;;;2.00;99.90;;;;;;5096617;28;20271;-93
2022/11/10 03:30:21;;;;;;;6.83;4.23;;;1.90;99.90;;;;;;5115194;28;20209;-91
2022/11/10 03:32:52;;;;;;;6.27;4.47;;;1.90;99.90;;;;;;5102344;28;20228;-89
2022/11/10 03:35:25;;;;;;;8.17;3.73;;;1.90;99.90;;;;;;5097020;28;20201;-91
2022/11/10 03:37:59;;;;;;;4.43;3.43;;;1.90;99.90;;;;;;5104972;28;20248;-90
2022/11/10 03:40:30;;;;;;;7.17;4.37;;;1.80;99.90;;;;;;5097755;28;20230;-90
2022/11/10 03:43:21;;;;;;;5.63;4.07;;;1.80;99.90;;;;;;5098421;28;20869;-90
2022/11/10 03:45:54;;;;;;;6.27;4.57;;;1.80;99.90;;;;;;5103251;28;20241;-92
2022/11/10 03:48:26;;;;;;;8.77;3.87;;;1.70;99.90;;;;;;5126688;28;20242;-91
2022/11/10 03:51:01;;;;;;;8.90;4.23;;;1.70;99.90;;;;;;5122701;28;20194;-91
2022/11/10 03:53:34;;;;;;;6.47;4.30;;;1.70;99.90;;;;;;5115265;28;20234;-91
2022/11/10 03:56:06;;;;;;;7.00;4.53;;;1.60;99.90;;;;;;5104218;28;20294;-91
2022/11/10 03:58:38;;;;;;;7.47;4.70;;;1.70;99.90;;;;;;5103468;28;20215;-91
2022/11/10 04:01:12;;;;;;;7.27;4.90;;;1.60;99.90;;;;;;5088013;28;20230;-92
2022/11/10 04:03:43;;;;;;;9.30;5.63;;;1.60;99.90;;;;;;5136635;28;20225;-91
2022/11/10 04:09:15;;;;;;;7.47;5.47;;;1.50;99.90;;;;;;5074629;28;20200;-91
2022/11/10 04:17:22;;;;;;;8.03;4.77;;;1.30;99.90;;;;;;5104097;28;20286;-93
2022/11/10 04:19:54;;;;;;;7.73;4.03;;;1.30;99.90;;;;;;5102521;28;20199;-91
2022/11/10 04:25:13;;;;;;;9.83;5.20;;;1.30;99.90;;;;;;5106504;28;20661;-90
2022/11/10 04:27:45;;;;;;;9.17;5.33;;;1.20;99.90;;;;;;5117176;28;20309;-91
2022/11/10 04:30:18;;;;;;;9.20;5.70;;;1.20;99.90;;;;;;5083880;28;20258;-92
2022/11/10 04:32:49;;;;;;;13.47;6.57;;;1.10;99.90;;;;;;5110138;28;20282;-90
2022/11/10 04:35:21;;;;;;;10.90;6.70;;;1.10;99.90;;;;;;5119172;28;20258;-92
2022/11/10 04:37:52;;;;;;;11.73;8.70;;;1.10;99.90;;;;;;5114144;28;20632;-92
2022/11/10 04:40:27;;;;;;;11.67;8.17;;;1.10;99.90;;;;;;5093693;28;20223;-91
2022/11/10 04:42:59;;;;;;;10.70;7.50;;;1.00;99.90;;;;;;5097046;28;20226;-93
2022/11/10 04:45:30;;;;;;;9.93;8.27;;;1.00;99.90;;;;;;5105614;28;20205;-91
2022/11/10 04:48:01;;;;;;;12.33;8.83;;;1.00;99.90;;;;;;5105655;28;20757;-91
2022/11/10 04:50:33;;;;;;;11.83;8.33;;;1.00;99.90;;;;;;5114057;28;21368;-92
2022/11/10 04:53:08;;;;;;;10.60;7.80;;;0.90;99.90;;;;;;5111828;28;20227;-92
2022/11/10 04:55:45;;;;;;;10.97;7.50;;;0.90;99.90;;;;;;5092615;28;20266;-92
2022/11/10 04:58:17;;;;;;;11.73;7.20;;;0.90;99.90;;;;;;5095325;28;20220;-92
2022/11/10 05:00:48;;;;;;;12.37;7.33;;;0.90;99.90;;;;;;5106352;28;20297;-93
2022/11/10 05:03:19;;;;;;;11.53;7.23;;;0.90;99.90;;;;;;5098141;28;20310;-91
2022/11/10 05:05:51;;;;;;;11.10;7.47;;;0.90;99.90;;;;;;5103109;28;20206;-91
2022/11/10 05:08:23;;;;;;;10.87;7.10;;;0.90;99.90;;;;;;5109857;28;20770;-91
2022/11/10 05:10:57;;;;;;;11.13;7.33;;;1.00;99.90;;;;;;5116703;28;20221;-91
2022/11/10 05:13:28;;;;;;;12.47;8.10;;;1.00;99.90;;;;;;5114660;28;20275;-93
2022/11/10 05:16:00;;;;;;;9.87;7.10;;;1.10;99.90;;;;;;5107683;28;20212;-92
2022/11/10 05:18:31;;;;;;;7.93;6.20;;;1.20;99.90;;;;;;5101942;28;20241;-92
2022/11/10 05:21:02;;;;;;;7.77;6.70;;;1.30;99.90;;;;;;5115725;28;20301;-91
2022/11/10 05:23:40;;;;;;;6.97;6.00;;;1.40;99.90;;;;;;5114606;28;20249;-91
2022/11/10 05:26:18;;;;;;;6.83;4.90;;;1.50;99.90;;;;;;5116158;28;20259;-92
2022/11/10 05:28:50;;;;;;;6.53;4.50;;;1.60;99.90;;;;;;5115460;28;20311;-91
2022/11/10 05:31:21;;;;;;;7.07;5.00;;;1.70;99.90;;;;;;5097858;28;20206;-91
2022/11/10 05:33:52;;;;;;;6.00;4.20;;;1.70;99.90;;;;;;5114587;28;20202;-92
2022/11/10 05:36:23;;;;;;;6.30;4.10;;;1.80;99.90;;;;;;5114672;28;20262;-90
2022/11/10 05:38:54;;;;;;;5.57;4.10;;;1.90;99.90;;;;;;5097051;28;20249;-90
2022/11/10 05:41:29;;;;;;;5.27;3.73;;;1.90;99.90;;;;;;5109038;28;20216;-91
2022/11/10 05:44:01;;;;;;;7.17;3.87;;;2.00;99.90;;;;;;5099941;28;20298;-90
2022/11/10 05:46:32;;;;;;;3.87;3.37;;;2.00;99.90;;;;;;5099705;28;20218;-90
2022/11/10 05:49:04;;;;;;;7.60;5.77;;;2.10;99.90;;;;;;5109032;28;20222;-91
2022/11/10 05:51:35;;;;;;;16.77;10.17;;;2.10;99.90;;;;;;5107355;28;20207;-91
2022/11/10 05:54:07;;;;;;;33.10;18.10;;;2.20;99.90;;;;;;5098226;28;20282;-91
2022/11/10 05:56:41;;;;;;;33.07;15.80;;;2.10;99.90;;;;;;5097654;28;20337;-92
2022/11/10 05:59:12;;;;;;;26.63;12.50;;;2.10;99.90;;;;;;5115528;28;20225;-91
2022/11/10 06:01:43;;;;;;;17.20;9.13;;;2.10;99.90;;;;;;5112870;28;20237;-91
2022/11/10 06:04:14;;;;;;;13.03;7.63;;;2.10;99.90;;;;;;5113291;28;20289;-91
2022/11/10 06:06:46;;;;;;;8.07;4.90;;;2.10;99.90;;;;;;5115476;28;20665;-91
2022/11/10 06:09:17;;;;;;;8.20;4.30;;;2.20;99.90;;;;;;5100525;28;20241;-92
2022/11/10 06:11:50;;;;;;;8.43;4.40;;;2.20;99.90;;;;;;5115399;28;20210;-92
2022/11/10 06:14:21;;;;;;;6.40;3.70;;;2.20;99.90;;;;;;5117857;28;20214;-91
2022/11/10 06:16:53;;;;;;;7.80;4.23;;;2.20;99.90;;;;;;5132475;28;20226;-91
2022/11/10 06:19:24;;;;;;;5.33;3.53;;;2.30;99.90;;;;;;5116799;28;20262;-92
2022/11/10 06:21:56;;;;;;;6.00;3.97;;;2.30;99.90;;;;;;5114927;28;20198;-93
2022/11/10 06:24:36;;;;;;;5.57;3.40;;;2.30;99.90;;;;;;5115604;28;20650;-91
2022/11/10 06:27:10;;;;;;;5.17;3.33;;;2.30;99.90;;;;;;5111336;28;20198;-91
2022/11/10 06:29:43;;;;;;;5.13;2.70;;;2.30;99.90;;;;;;5116003;28;20328;-91
2022/11/10 06:32:16;;;;;;;5.13;3.37;;;2.30;99.90;;;;;;5115110;28;20186;-91
2022/11/10 06:34:48;;;;;;;5.63;3.23;;;2.30;99.90;;;;;;5115397;28;20284;-90
2022/11/10 06:37:19;;;;;;;5.17;3.70;;;2.30;99.90;;;;;;5112654;28;20293;-90
2022/11/10 06:39:51;;;;;;;6.00;3.87;;;2.30;99.90;;;;;;5103030;28;20202;-90
2022/11/10 06:42:26;;;;;;;6.77;3.30;;;2.30;99.90;;;;;;5101843;28;20246;-91
2022/11/10 06:44:57;;;;;;;6.77;3.73;;;2.40;99.90;;;;;;5099765;28;20282;-89
2022/11/10 06:47:28;;;;;;;4.87;3.00;;;2.40;99.90;;;;;;5113848;28;20257;-90
2022/11/10 06:49:59;;;;;;;5.13;3.10;;;2.40;99.90;;;;;;5113290;28;20313;-89
2022/11/10 06:52:31;;;;;;;7.03;3.50;;;2.40;99.90;;;;;;5117994;28;20289;-90
2022/11/10 06:55:03;;;;;;;4.73;3.40;;;2.40;99.90;;;;;;5118505;28;20206;-90
2022/11/10 06:57:42;;;;;;;6.70;3.53;;;2.40;99.90;;;;;;5120532;28;20230;-90
2022/11/10 07:00:15;;;;;;;5.90;3.50;;;2.40;99.90;;;;;;5109414;28;20210;-91
2022/11/10 07:02:46;;;;;;;4.37;2.90;;;2.40;99.90;;;;;;5113824;28;20229;-90
2022/11/10 07:05:17;;;;;;;4.83;2.97;;;2.40;99.90;;;;;;5118568;28;20707;-91
2022/11/10 07:07:48;;;;;;;2.87;2.67;;;2.40;99.90;;;;;;5118162;28;20209;-91
2022/11/10 07:10:21;;;;;;;4.30;2.77;;;2.40;99.90;;;;;;5114248;28;20230;-91
2022/11/10 07:12:59;;;;;;;3.00;2.70;;;2.40;99.90;;;;;;5116152;28;20210;-91
2022/11/10 07:15:32;;;;;;;5.17;2.57;;;2.40;99.90;;;;;;5107648;28;20274;-89
2022/11/10 07:18:05;;;;;;;3.90;2.80;;;2.50;99.90;;;;;;5099050;28;20600;-91
2022/11/10 07:20:37;;;;;;;5.60;2.97;;;2.50;99.90;;;;;;5100959;28;20285;-91
2022/11/10 07:23:09;;;;;;;5.63;2.70;;;2.50;99.90;;;;;;5115011;28;20298;-90
2022/11/10 07:25:41;;;;;;;2.93;2.30;;;2.50;99.90;;;;;;5120510;28;20431;-90
2022/11/10 07:28:14;;;;;;;3.10;2.80;;;2.50;99.90;;;;;;5120243;28;20210;-90
2022/11/10 07:30:45;;;;;;;2.87;2.10;;;2.50;99.90;;;;;;5098346;28;20226;-90
2022/11/10 07:33:17;;;;;;;5.23;2.57;;;2.50;99.90;;;;;;5097587;28;20579;-90
2022/11/10 07:35:55;;;;;;;6.40;3.70;;;2.50;99.90;;;;;;5111512;28;20210;-90
2022/11/10 07:38:27;;;;;;;3.43;2.27;;;2.50;99.90;;;;;;5100597;28;20207;-90
2022/11/10 07:40:59;;;;;;;4.13;2.50;;;2.60;99.90;;;;;;5115953;28;20207;-90
2022/11/10 07:43:33;;;;;;;5.50;2.90;;;2.60;99.90;;;;;;5096850;28;20270;-90
2022/11/10 07:46:04;;;;;;;3.20;2.13;;;2.60;99.90;;;;;;5117670;28;20234;-90
2022/11/10 07:48:36;;;;;;;4.17;2.40;;;2.70;99.90;;;;;;5116939;28;20234;-90
2022/11/10 07:51:08;;;;;;;5.00;2.20;;;2.70;99.90;;;;;;5117375;28;20202;-91
2022/11/10 07:53:40;;;;;;;3.23;2.60;;;2.70;99.90;;;;;;5116372;28;20226;-89
2022/11/10 07:56:11;;;;;;;4.13;2.60;;;2.80;99.90;;;;;;5117109;28;20208;-90
2022/11/10 07:58:44;;;;;;;3.40;2.47;;;2.80;99.90;;;;;;5113001;28;20233;-90
2022/11/10 08:01:18;;;;;;;2.60;2.20;;;2.80;99.90;;;;;;5105423;28;20704;-91
2022/11/10 08:03:49;;;;;;;3.57;2.10;;;2.70;99.90;;;;;;5116422;28;20280;-91
2022/11/10 08:06:20;;;;;;;2.60;2.17;;;2.80;99.90;;;;;;5099946;28;20532;-90
2022/11/10 08:08:52;;;;;;;3.00;2.43;;;2.80;99.90;;;;;;5117033;28;20220;-92
2022/11/10 08:11:23;;;;;;;3.20;2.63;;;2.70;99.90;;;;;;5114756;28;20722;-89
2022/11/10 08:13:58;;;;;;;3.70;2.70;;;2.70;99.90;;;;;;5116530;28;20288;-90
2022/11/10 08:16:30;;;;;;;4.07;2.37;;;2.70;99.90;;;;;;5117290;28;20198;-90
2022/11/10 08:19:01;;;;;;;4.53;2.40;;;2.70;99.90;;;;;;5116636;28;20254;-90
2022/11/10 08:21:33;;;;;;;3.10;2.50;;;2.70;99.90;;;;;;5104351;28;20230;-90
2022/11/10 08:24:05;;;;;;;3.00;2.50;;;2.70;99.90;;;;;;5116550;28;20204;-90
2022/11/10 08:26:38;;;;;;;3.40;2.60;;;2.70;99.90;;;;;;5124104;28;20207;-90
2022/11/10 08:29:12;;;;;;;3.20;2.53;;;2.70;99.90;;;;;;5119987;28;20202;-89
2022/11/10 08:31:43;;;;;;;4.03;2.80;;;2.70;99.90;;;;;;5102536;28;20246;-88
2022/11/10 08:34:15;;;;;;;3.73;2.80;;;2.70;99.90;;;;;;5101615;28;20207;-90
2022/11/10 08:36:46;;;;;;;4.63;2.17;;;2.80;99.90;;;;;;5093341;28;20301;-90
2022/11/10 08:39:18;;;;;;;3.60;2.70;;;2.70;99.90;;;;;;5111332;28;20195;-90
2022/11/10 08:42:07;;;;;;;5.07;2.53;;;2.80;99.90;;;;;;5098910;28;20206;-90
2022/11/10 08:44:41;;;;;;;4.43;2.80;;;2.80;99.90;;;;;;5108213;28;20199;-89
2022/11/10 08:47:13;;;;;;;2.97;2.27;;;2.80;99.90;;;;;;5095929;28;20242;-90
2022/11/10 08:49:44;;;;;;;3.13;2.47;;;2.80;99.90;;;;;;5095914;28;20318;-90
2022/11/10 08:52:15;;;;;;;3.00;2.43;;;2.80;99.90;;;;;;5077485;28;20203;-90
2022/11/10 08:54:47;;;;;;;3.53;2.47;;;2.80;99.90;;;;;;5095752;28;20207;-91
2022/11/10 08:57:22;;;;;;;3.30;2.37;;;2.80;99.90;;;;;;5096739;28;20213;-90
2022/11/10 08:59:55;;;;;;;2.40;2.07;;;2.80;99.90;;;;;;5109219;28;20575;-89
2022/11/10 09:02:27;;;;;;;2.70;2.10;;;2.80;99.90;;;;;;5108152;28;20592;-90
2022/11/10 09:04:58;;;;;;;2.90;2.13;;;2.80;99.90;;;;;;5107788;28;20289;-90
2022/11/10 09:07:29;;;;;;;2.60;2.40;;;2.80;99.90;;;;;;5099145;28;20642;-89
2022/11/10 09:10:00;;;;;;;2.73;2.20;;;2.90;99.90;;;;;;5117876;28;20248;-90
2022/11/10 09:12:40;;;;;;;3.97;2.83;;;3.00;99.90;;;;;;5115109;28;20289;-89
2022/11/10 09:15:14;;;;;;;4.93;2.70;;;2.90;99.90;;;;;;5116888;28;20244;-89
2022/11/10 09:17:45;;;;;;;2.67;2.40;;;2.80;99.90;;;;;;5116944;28;20198;-89
2022/11/10 09:20:17;;;;;;;5.97;3.03;;;2.80;99.90;;;;;;5119951;28;20202;-89
2022/11/10 09:22:48;;;;;;;4.83;2.77;;;2.80;99.90;;;;;;5117575;28;20256;-90
2022/11/10 09:25:19;;;;;;;6.70;2.30;;;2.80;99.90;;;;;;5116658;28;20207;-90
2022/11/10 09:27:51;;;;;;;2.67;2.30;;;2.80;99.90;;;;;;5118222;28;20270;-89
2022/11/10 09:30:25;;;;;;;2.60;2.30;;;2.90;99.90;;;;;;5118992;28;20316;-90
2022/11/10 09:32:57;;;;;;;2.60;2.37;;;2.90;99.90;;;;;;5116352;28;20198;-90
2022/11/10 09:35:29;;;;;;;3.10;2.33;;;2.80;99.90;;;;;;5104095;28;20202;-90
2022/11/10 09:38:02;;;;;;;4.70;2.37;;;2.80;99.90;;;;;;5130712;27;20237;-89
2022/11/10 09:40:47;;;;;;;3.40;2.43;;;2.90;99.90;;;;;;5137541;28;20210;-90
2022/11/10 09:43:24;;;;;;;2.50;2.30;;;2.80;99.90;;;;;;5119981;28;20201;-90
2022/11/10 09:46:02;;;;;;;5.20;2.20;;;2.90;99.90;;;;;;5127605;28;20240;-89
2022/11/10 09:48:38;;;;;;;3.63;2.60;;;2.90;99.90;;;;;;5118702;28;20293;-90
2022/11/10 09:51:13;;;;;;;3.47;2.30;;;2.90;99.90;;;;;;5119023;28;20267;-90
2022/11/10 09:53:49;;;;;;;4.13;2.30;;;3.00;99.90;;;;;;5117023;28;20228;-88
2022/11/10 09:56:27;;;;;;;3.37;2.63;;;2.90;99.90;;;;;;5097642;28;20289;-89
2022/11/10 09:58:58;;;;;;;2.87;2.30;;;2.90;99.90;;;;;;5114901;28;20249;-89
2022/11/10 10:01:41;;;;;;;5.33;2.60;;;3.00;99.90;;;;;;5115003;28;20199;-89
2022/11/10 10:04:26;;;;;;;5.40;2.77;;;3.00;99.90;;;;;;5114876;28;20573;-90
2022/11/10 10:07:06;;;;;;;4.00;2.47;;;2.90;99.90;;;;;;5098833;28;20242;-89
2022/11/10 10:09:49;;;;;;;4.30;2.83;;;2.90;99.90;;;;;;5114743;28;20263;-89
2022/11/10 10:12:39;;;;;;;4.77;2.47;;;2.90;99.90;;;;;;5114611;28;20226;-90
2022/11/10 10:15:22;;;;;;;3.83;2.60;;;3.00;99.90;;;;;;5114339;28;20245;-89
2022/11/10 10:18:10;;;;;;;4.87;2.87;;;3.00;99.90;;;;;;5115027;28;20206;-89
2022/11/10 10:20:50;;;;;;;3.03;2.67;;;3.00;99.90;;;;;;5114217;28;20281;-89
2022/11/10 10:23:28;;;;;;;4.17;2.97;;;3.00;99.90;;;;;;5106803;28;20222;-89
2022/11/10 10:26:23;;;;;;;4.77;2.63;;;3.10;99.90;;;;;;5100101;28;20647;-91
2022/11/10 10:28:56;;;;;;;4.20;2.67;;;3.10;99.90;;;;;;5094800;28;20203;-90
2022/11/10 10:31:37;;;;;;;3.73;2.63;;;3.10;99.90;;;;;;5097463;28;20317;-89
2022/11/10 10:34:16;;;;;;;4.30;2.60;;;3.00;99.90;;;;;;5129121;28;20189;-90
2022/11/10 10:36:48;;;;;;;4.53;3.03;;;3.00;99.90;;;;;;5135267;28;20217;-91
2022/11/10 10:39:29;;;;;;;3.77;2.20;;;3.00;99.90;;;;;;5136045;28;20238;-89
2022/11/10 10:42:00;;;;;;;3.40;2.70;;;3.10;99.90;;;;;;5120947;28;20205;-89
2022/11/10 10:44:31;;;;;;;3.90;2.60;;;3.10;99.90;;;;;;5117840;28;20233;-91
2022/11/10 10:47:03;;;;;;;3.07;2.60;;;3.10;99.90;;;;;;5116942;28;20277;-90
2022/11/10 10:49:37;;;;;;;3.00;2.53;;;3.10;99.90;;;;;;5114645;28;20236;-90
2022/11/10 10:52:14;;;;;;;3.50;2.60;;;3.10;99.90;;;;;;5113650;28;20264;-89
2022/11/10 10:54:45;;;;;;;4.27;2.50;;;3.10;99.90;;;;;;5097590;28;20233;-91
2022/11/10 10:57:24;;;;;;;3.67;2.23;;;3.10;99.90;;;;;;5114687;28;20299;-90
2022/11/10 11:00:16;;;;;;;3.57;2.67;;;3.10;99.90;;;;;;5114239;28;20281;-89
2022/11/10 11:03:02;;;;;;;2.73;2.03;;;3.10;99.90;;;;;;5114015;28;20214;-89
2022/11/10 11:05:40;;;;;;;3.83;2.27;;;3.10;99.90;;;;;;5114612;28;20202;-89
2022/11/10 11:08:19;;;;;;;3.13;2.20;;;3.10;99.90;;;;;;5114478;28;20237;-89
2022/11/10 11:10:51;;;;;;;3.47;2.63;;;3.10;99.90;;;;;;5093919;28;20218;-90
2022/11/10 11:13:24;;;;;;;4.03;2.50;;;3.20;99.90;;;;;;5094009;28;20286;-89
2022/11/10 11:16:02;;;;;;;3.30;2.03;;;3.10;99.90;;;;;;5094740;28;20545;-91
2022/11/10 11:18:36;;;;;;;2.60;2.30;;;3.20;99.90;;;;;;5094294;28;20285;-88
2022/11/10 11:21:26;;;;;;;3.63;2.30;;;3.20;99.90;;;;;;5093833;28;20206;-91
2022/11/10 11:24:23;;;;;;;4.23;2.60;;;3.20;99.90;;;;;;5098557;28;20567;-90
2022/11/10 11:27:00;;;;;;;3.80;2.50;;;3.20;99.90;;;;;;5114261;28;20226;-89
2022/11/10 11:30:00;;;;;;;4.47;2.77;;;3.20;99.90;;;;;;5114262;28;20289;-89
2022/11/10 11:32:57;;;;;;;4.00;2.80;;;3.20;99.90;;;;;;5109555;28;20230;-89
2022/11/10 11:35:35;;;;;;;4.00;2.90;;;3.20;99.90;;;;;;5097535;28;20195;-88
2022/11/10 11:38:14;;;;;;;3.20;2.47;;;3.20;99.90;;;;;;5098419;28;20685;-89
2022/11/10 11:40:58;;;;;;;4.13;2.60;;;3.20;99.90;;;;;;5117827;28;20241;-89
2022/11/10 11:43:51;;;;;;;5.13;2.63;;;3.20;99.90;;;;;;5114094;28;20222;-91
2022/11/10 11:46:32;;;;;;;4.50;2.40;;;3.20;99.90;;;;;;5079956;28;20667;-89
2022/11/10 11:49:22;;;;;;;3.10;2.50;;;3.20;99.90;;;;;;5104686;28;20687;-90
2022/11/10 11:52:03;;;;;;;3.47;2.50;;;3.20;99.90;;;;;;5117535;28;20589;-90
2022/11/10 11:54:49;;;;;;;3.67;2.33;;;3.10;99.90;;;;;;5117605;28;20209;-90
2022/11/10 11:57:31;;;;;;;5.37;2.80;;;3.10;99.90;;;;;;5106091;28;20284;-90
2022/11/10 12:00:13;;;;;;;4.20;2.60;;;3.20;99.90;;;;;;5096359;28;20529;-89
2022/11/10 12:03:12;;;;;;;4.47;2.67;;;3.10;99.90;;;;;;5099606;28;20206;-89
2022/11/10 12:05:54;;;;;;;4.63;2.53;;;3.00;99.90;;;;;;5081025;28;20289;-90
2022/11/10 12:08:37;;;;;;;2.73;2.23;;;3.00;99.90;;;;;;5121646;28;20210;-89
2022/11/10 12:11:21;;;;;;;5.07;2.80;;;3.00;99.90;;;;;;5117825;28;20571;-89
2022/11/10 12:14:05;;;;;;;3.20;2.60;;;3.00;99.90;;;;;;5116997;28;20226;-90
2022/11/10 12:16:37;;;;;;;2.67;2.27;;;3.10;99.90;;;;;;5118192;28;20226;-90
2022/11/10 12:19:22;;;;;;;3.37;2.53;;;3.10;99.90;;;;;;5115539;28;20290;-88
2022/11/10 12:21:56;;;;;;;3.80;2.33;;;3.10;99.90;;;;;;5116786;28;20289;-94
2022/11/10 12:24:49;;;;;;;5.90;3.03;;;3.10;99.90;;;;;;5118595;28;20245;-90
2022/11/10 12:27:28;;;;;;;3.43;2.40;;;3.10;99.90;;;;;;5116348;28;20377;-90
2022/11/10 12:30:03;;;;;;;4.03;2.70;;;3.00;99.90;;;;;;5116616;28;20210;-89
2022/11/10 12:32:41;;;;;;;3.60;2.50;;;3.00;99.90;;;;;;5117246;28;20308;-89
2022/11/10 12:35:18;;;;;;;2.60;2.07;;;3.00;99.90;;;;;;5117414;28;20721;-89
2022/11/10 12:37:54;;;;;;;3.23;2.20;;;3.00;99.90;;;;;;5110996;28;20290;-90
2022/11/10 12:40:31;;;;;;;3.20;2.43;;;3.10;99.90;;;;;;5117724;28;20216;-90
2022/11/10 12:43:19;;;;;;;4.40;2.43;;;3.00;99.90;;;;;;5114073;28;20206;-89
2022/11/10 12:45:55;;;;;;;3.53;2.30;;;3.10;99.90;;;;;;5122123;28;20653;-90
2022/11/10 12:48:28;;;;;;;4.63;2.80;;;3.10;99.90;;;;;;5126094;28;20216;-90
2022/11/10 12:51:07;;;;;;;6.13;2.70;;;3.10;99.90;;;;;;5111542;28;20229;-90
2022/11/10 12:53:41;;;;;;;4.30;2.50;;;3.10;99.90;;;;;;5111081;28;20309;-89
2022/11/10 12:56:20;;;;;;;4.93;2.40;;;3.10;99.90;;;;;;5116672;28;20244;-90
2022/11/10 12:59:25;;;;;;;4.53;2.50;;;3.10;99.90;;;;;;5095950;28;20311;-90
2022/11/10 13:02:05;;;;;;;5.83;2.60;;;3.10;99.90;;;;;;5094917;28;20202;-90
2022/11/10 13:04:37;;;;;;;4.97;2.77;;;3.10;99.90;;;;;;5092713;28;20215;-89
2022/11/10 13:07:09;;;;;;;3.77;2.40;;;3.20;99.90;;;;;;5116321;28;20233;-89
2022/11/10 13:09:45;;;;;;;4.60;2.83;;;3.20;99.90;;;;;;5096156;28;20199;-89
2022/11/10 13:12:19;;;;;;;4.40;3.03;;;3.10;99.90;;;;;;5077251;28;20932;-89
2022/11/10 13:14:55;;;;;;;3.17;2.70;;;3.10;99.90;;;;;;5099897;28;20218;-89
2022/11/10 13:17:56;;;;;;;3.93;2.80;;;3.10;99.90;;;;;;5095456;28;20282;-89
2022/11/10 13:20:49;;;;;;;4.10;2.70;;;3.20;99.90;;;;;;5079690;28;20245;-90
2022/11/10 13:23:30;;;;;;;4.93;2.73;;;3.20;99.90;;;;;;5094561;28;20286;-89
2022/11/10 13:26:04;;;;;;;4.43;2.67;;;3.10;99.90;;;;;;5095510;28;20193;-89
2022/11/10 13:28:57;;;;;;;2.70;2.37;;;3.10;99.90;;;;;;5095508;28;20347;-91
2022/11/10 13:31:53;;;;;;;3.37;2.93;;;3.10;99.90;;;;;;5095030;28;20203;-90
2022/11/10 13:34:36;;;;;;;4.40;2.93;;;3.10;99.90;;;;;;5094847;28;20298;-90
2022/11/10 13:37:42;;;;;;;3.30;2.90;;;3.10;99.90;;;;;;5103795;28;20220;-90
2022/11/10 13:40:30;;;;;;;3.57;2.47;;;3.10;99.90;;;;;;5105897;27;20207;-90
2022/11/10 13:43:28;;;;;;;4.43;2.60;;;3.10;99.90;;;;;;5096613;28;20202;-90
2022/11/10 13:46:08;;;;;;;5.73;2.50;;;3.10;99.90;;;;;;5098758;28;20253;-89
2022/11/10 13:49:27;;;;;;;4.73;2.83;;;3.10;99.90;;;;;;5078938;28;20229;-89
2022/11/10 13:52:10;;;;;;;4.63;3.00;;;3.20;99.90;;;;;;5019301;28;20292;-91